Singersville, Pennsylvania
Current Conditions -  °F | °C
As of 10:56 AM on Friday 31 Oct 2014 (Local Time) from KCXY Reporting Station
Overcast Overcast  
Wind Chill: 47°   Ceiling: 6000
Heat Index: 49°   Visibility: 10mi
Dew Point: 35°   Wind: 6mph
Humidity: 59%   Direction: 80°E
Pressure: 30"   Gusts: NA
Location:  40.4076°N, 76.8769°W
Report Text: KCXY 311456Z 08005KT 10SM OVC060 09/02 A3000 RMK AO2 SLP160 T00940017 58004
Loading
Personal Weather Stations






























Interactive Weather Map
Tropical Storm Tracking
New forecast layout! Learn more

10-Day Weather Forecast

Advertisements
Track Severe Weather on mobile